Vancouver, WA

08:20 AM PDT del 23 Agosto 2014 (GMT -0700)
Columbia Tech Center | Change Station
CLOSE
Current Station
Stazione meteo personale
Location: Vancouver, WA
Altitudine: 276 ft
Stazioni meteo nelle vicinanze

Alt. 276 ft 45.62 °N, 122.48 °W | Updated 19 seconds ago

Scattered Clouds
Nubi sparse
62.8 °F
Sembra 62.8 °F
N
0.0
Vento Variabile Vento da Sud
Gusts 3.0 mph

Oggi
Massima -- | Minima -- °F
--% Possibilità di precip.
Ieri
Massima -- | Minima -- °F
Precip. -- in
6:20 AM 8:04 PM
Luna calante, 3% visible
Pressione 30.13 in
Visibilità 10.0 miglia
Nuvole Alcuni 1800 ft
Nubi sparse 25000 ft
Punto di rugiada 55 °F
Umidità 76%
Piovosità 0.00 in
Spessore del manto nevoso Non disponibile.
Raggi UV 1 fuori da 12
Polline 3.50 fuori da 12
Qualità dell'aria Non disponibile.
Flu Activity Non disponibile.
METAR KPDX 231453Z 00000KT 10SM FEW018 SCT250 16/13 A3013 RMK AO2 SLP202 T01560133 51010

More Conditions Fewer Conditions

Pressione 30.13 in
Visibilità 10.0 miglia
Nuvole Alcuni 1800 ft
Nubi sparse 25000 ft
Punto di rugiada 55 °F
Umidità 76%
Piovosità 0.00 in
Spessore del manto nevoso Non disponibile.
Raggi UV 1 fuori da 12
Polline 3.50 fuori da 12
Qualità dell'aria Non disponibile.
Flu Activity Non disponibile.
METAR KPDX 231453Z 00000KT 10SM FEW018 SCT250 16/13 A3013 RMK AO2 SLP202 T01560133 51010

More Conditions Fewer Conditions

10-Day Weather Forecast

Almanac

Astronomia

Aug. 23, 2014 Alba Tramonto
Ora attuale 06:20 PDT 20:04 PDT
Crepuscolo civile 05:48 PDT 20:35 PDT
Crepuscolo nautico 05:10 PDT 21:13 PDT
Crepuscolo astronomico 04:28 PDT 21:55 PDT
Luna 04:39 PDT 18:52 PDT
Estensione della luce visibile 14h 46m
Lunghezza del giorno
13h 43m
Tomorrow will be 3m 0s shorter.
Luna calante, 3% of the Moon is Illuminated
Oggi
Luna calante
Ago 25
Nuovo
Set 2
Primo quarto
Set 8
Luna piena
Set 15
Ultimo quarto

Gli estremi di oggi

State Highs State Lows

Community

WunderPhotos

Upload Photos

1,746,495 foto caricate!

WunderBlogs® & News

By Dr. Jeff Masters
Director of Meteorology, Weather Underground
By Kari Strenfel
Meteorologist, Weather Underground
By Christopher C. Burt
Weather Historian, Weather Underground
August 23, 2014
August 23, 2014
August 23, 2014

Nearby

Profondità neve

Stazione Profondità Altitudine
June Lake 0 in 3340 ft
Swift Creek 1 in 3770 ft
Spirit Lake 0 in 3120 ft
Spencer Meadow 0 in 3400 ft
Surprise Lakes 1 in 4250 ft

Attività sismica

Città  Distanza Mag. Data & Ora
Non sono state riportate attività sismiche nelle vicinanze.
Minimo Magnitudo Mostrato è 2.5.

Temperature delle acque costiere

Località Temperatura
Nessun dato dalle stazioni

Stazioni meteo nelle vicinanze